Cold Spring Hills, New York
Current Conditions -  °F | °C
As of 2:53 PM on Thursday 18 Dec 2014 (Local Time) from KFRG Reporting Station
Scattered Clouds Scattered Clouds  
Wind Chill: 37°   Ceiling: Unl
Heat Index: 42°   Visibility: 10mi
Dew Point: 25°   Wind: 8mph
Humidity: 51%   Direction: 310°NW
Pressure: 29.92"   Gusts: 22mph
Location:  40.8966°N, 73.4362°W
Report Text: KFRG 181953Z 31007G19KT 10SM SCT039 06/M04 A2992 RMK AO2 SLP132 T00561039
Loading
Personal Weather Stations






























Interactive Weather Map New forecast layout! Learn more

10-Day Weather Forecast

Advertisements
Track Severe Weather on mobile